Time;durP1;ratioP1;P1;durP2;ratioP2;P2;SDS_P1;SDS_P2;PMS_P1;PMS_P2;Temp;Humidity;BMP_temperature;BMP_pressure;BME280_temperature;BME280_humidity;BME280_pressure;Samples;Min_cycle;Max_cycle;Signal;HPM_P1;HPM_P2
2024/03/31 00:01:09;;;;;;;4.07;2.40;;;;;;;;;;5049336;28;20090;-45
2024/03/31 00:03:39;;;;;;;3.45;2.10;;;;;;;;;;5049069;28;20702;-43
2024/03/31 00:06:05;;;;;;;4.53;2.42;;;;;;;;;;5064084;28;20136;-44
2024/03/31 00:08:31;;;;;;;3.85;2.10;;;;;;;;;;5048962;28;20111;-41
2024/03/31 00:10:57;;;;;;;3.80;2.35;;;;;;;;;;5054222;28;20041;-43
2024/03/31 00:13:23;;;;;;;3.95;1.98;;;;;;;;;;5049021;28;20044;-43
2024/03/31 00:15:49;;;;;;;4.85;2.35;;;;;;;;;;5048889;28;20072;-43
2024/03/31 00:18:15;;;;;;;5.22;3.25;;;;;;;;;;5046726;28;20092;-43
2024/03/31 00:20:40;;;;;;;6.18;3.10;;;;;;;;;;5048596;28;20039;-43
2024/03/31 00:23:06;;;;;;;6.53;3.60;;;;;;;;;;5048432;28;20068;-43
2024/03/31 00:25:31;;;;;;;7.63;3.67;;;;;;;;;;5063806;28;20036;-44
2024/03/31 00:27:57;;;;;;;7.65;3.90;;;;;;;;;;5047368;28;20421;-43
2024/03/31 00:30:22;;;;;;;5.78;3.92;;;;;;;;;;5048979;28;20043;-44
2024/03/31 00:32:49;;;;;;;6.20;4.55;;;;;;;;;;5048574;28;20099;-43
2024/03/31 00:35:15;;;;;;;11.77;4.85;;;;;;;;;;5046647;28;20048;-43
2024/03/31 00:37:41;;;;;;;10.10;5.70;;;;;;;;;;5048474;28;20506;-45
2024/03/31 00:40:07;;;;;;;8.32;4.85;;;;;;;;;;5046759;28;20035;-43
2024/03/31 00:42:33;;;;;;;8.48;5.70;;;;;;;;;;5046577;28;20044;-42
2024/03/31 00:44:58;;;;;;;9.57;6.10;;;;;;;;;;5046906;28;20516;-43
2024/03/31 00:47:24;;;;;;;10.85;6.57;;;;;;;;;;5046429;28;20029;-43
2024/03/31 00:49:50;;;;;;;10.10;6.35;;;;;;;;;;5061328;28;20539;-44
2024/03/31 00:52:16;;;;;;;14.95;7.82;;;;;;;;;;5051040;28;20564;-45
2024/03/31 00:54:42;;;;;;;13.30;8.40;;;;;;;;;;5067056;28;20070;-43
2024/03/31 00:57:09;;;;;;;16.38;9.23;;;;;;;;;;5066910;28;20059;-43
2024/03/31 00:59:35;;;;;;;13.73;8.40;;;;;;;;;;5066599;28;20733;-42
2024/03/31 01:02:01;;;;;;;13.60;8.82;;;;;;;;;;5055774;28;20124;-45
2024/03/31 01:04:27;;;;;;;14.38;8.60;;;;;;;;;;5063315;28;20033;-44
2024/03/31 01:06:52;;;;;;;15.20;9.63;;;;;;;;;;5047929;28;20044;-44
2024/03/31 01:09:18;;;;;;;15.48;9.80;;;;;;;;;;5047804;28;20061;-43
2024/03/31 01:11:44;;;;;;;15.60;8.77;;;;;;;;;;5046355;28;20032;-43
2024/03/31 01:14:10;;;;;;;14.77;9.27;;;;;;;;;;5062824;28;20739;-43
2024/03/31 01:16:37;;;;;;;13.77;8.60;;;;;;;;;;5046056;28;20060;-44
2024/03/31 01:19:03;;;;;;;13.77;8.57;;;;;;;;;;5047502;28;20065;-43
2024/03/31 01:21:30;;;;;;;12.55;8.38;;;;;;;;;;5046172;28;20037;-42
2024/03/31 01:23:56;;;;;;;14.52;8.65;;;;;;;;;;5046070;28;20520;-43
2024/03/31 01:26:22;;;;;;;10.85;7.40;;;;;;;;;;5046178;28;20132;-43
2024/03/31 01:28:48;;;;;;;14.43;7.97;;;;;;;;;;5045878;28;20049;-42
2024/03/31 01:31:15;;;;;;;11.57;7.68;;;;;;;;;;5045510;28;20048;-43
2024/03/31 01:33:41;;;;;;;10.25;7.15;;;;;;;;;;5062445;28;20566;-43
2024/03/31 01:36:06;;;;;;;11.48;7.25;;;;;;;;;;5046932;28;20044;-42
2024/03/31 01:38:32;;;;;;;10.23;6.82;;;;;;;;;;5062301;28;20147;-43
2024/03/31 01:40:58;;;;;;;16.20;7.25;;;;;;;;;;5062350;28;20084;-44
2024/03/31 01:43:24;;;;;;;10.95;7.15;;;;;;;;;;5046935;28;20488;-43
2024/03/31 01:45:51;;;;;;;12.07;6.25;;;;;;;;;;5062111;28;20043;-44
2024/03/31 01:48:17;;;;;;;9.13;6.07;;;;;;;;;;5065434;28;20040;-47
2024/03/31 01:50:44;;;;;;;12.25;5.70;;;;;;;;;;5065209;28;20115;-42
2024/03/31 01:53:09;;;;;;;11.68;6.10;;;;;;;;;;5059751;28;20135;-44
2024/03/31 01:55:35;;;;;;;10.55;5.68;;;;;;;;;;5045428;28;20029;-43
2024/03/31 01:58:01;;;;;;;9.95;5.80;;;;;;;;;;5062268;28;20673;-43
2024/03/31 02:00:27;;;;;;;8.77;5.63;;;;;;;;;;5045381;28;20029;-43
2024/03/31 02:02:53;;;;;;;9.65;5.22;;;;;;;;;;5061611;28;20036;-43
2024/03/31 02:05:19;;;;;;;7.75;5.32;;;;;;;;;;5044308;28;20045;-45
2024/03/31 02:07:45;;;;;;;9.05;5.45;;;;;;;;;;5046686;28;20032;-43
2024/03/31 02:10:11;;;;;;;8.70;5.53;;;;;;;;;;5061733;28;20032;-44
2024/03/31 02:12:38;;;;;;;8.18;5.32;;;;;;;;;;5061558;28;20124;-43
2024/03/31 02:15:04;;;;;;;7.30;4.88;;;;;;;;;;5044490;28;20116;-43
2024/03/31 02:17:33;;;;;;;6.05;4.28;;;;;;;;;;5061331;28;20546;-45
2024/03/31 02:19:59;;;;;;;6.78;4.07;;;;;;;;;;5060984;28;20078;-44
2024/03/31 02:22:24;;;;;;;7.85;4.53;;;;;;;;;;5046141;28;20037;-43
2024/03/31 02:24:50;;;;;;;9.15;4.70;;;;;;;;;;5046442;28;20068;-43
2024/03/31 02:27:16;;;;;;;6.10;4.00;;;;;;;;;;5061876;28;20078;-42
2024/03/31 02:29:45;;;;;;;6.85;4.75;;;;;;;;;;5061960;28;20040;-42
2024/03/31 02:32:12;;;;;;;9.68;4.47;;;;;;;;;;5061888;28;20116;-43
2024/03/31 02:34:37;;;;;;;6.50;3.90;;;;;;;;;;5044716;28;20116;-43
2024/03/31 02:37:03;;;;;;;5.70;4.13;;;;;;;;;;5044774;28;20094;-43
2024/03/31 02:39:29;;;;;;;6.45;3.92;;;;;;;;;;5044593;28;20443;-43
2024/03/31 02:41:54;;;;;;;6.70;3.80;;;;;;;;;;5044419;28;20033;-44
2024/03/31 02:44:20;;;;;;;5.70;3.60;;;;;;;;;;5045671;28;20036;-44
2024/03/31 02:46:48;;;;;;;5.90;4.07;;;;;;;;;;5061169;28;20083;-42
2024/03/31 02:49:14;;;;;;;6.00;3.55;;;;;;;;;;5071508;28;20033;-43
2024/03/31 02:51:40;;;;;;;4.25;3.22;;;;;;;;;;5062956;28;20032;-49
2024/03/31 02:54:05;;;;;;;5.65;3.60;;;;;;;;;;5063651;28;20028;-46
2024/03/31 02:56:31;;;;;;;5.63;3.65;;;;;;;;;;5047788;28;20037;-42
2024/03/31 02:58:57;;;;;;;8.35;3.65;;;;;;;;;;5060958;28;20063;-43
2024/03/31 03:01:23;;;;;;;5.15;3.30;;;;;;;;;;5044024;28;20403;-44
2024/03/31 03:03:49;;;;;;;6.80;3.90;;;;;;;;;;5060865;28;20037;-43
2024/03/31 03:06:15;;;;;;;5.75;3.35;;;;;;;;;;5061041;28;20037;-43
2024/03/31 03:08:40;;;;;;;5.28;3.15;;;;;;;;;;5045725;28;20063;-44
2024/03/31 03:11:11;;;;;;;7.32;3.60;;;;;;;;;;5044203;28;20041;-42
2024/03/31 03:13:38;;;;;;;4.97;3.10;;;;;;;;;;5043987;28;20044;-44
2024/03/31 03:16:03;;;;;;;6.30;3.30;;;;;;;;;;5061412;28;20040;-44
2024/03/31 03:18:29;;;;;;;7.30;3.60;;;;;;;;;;5064929;28;20094;-42
2024/03/31 03:20:58;;;;;;;13.00;3.47;;;;;;;;;;5052784;28;20052;-43
2024/03/31 03:23:24;;;;;;;6.82;3.30;;;;;;;;;;5077942;28;20142;-42
2024/03/31 03:25:53;;;;;;;5.63;3.67;;;;;;;;;;5078661;28;20028;-42
2024/03/31 03:28:19;;;;;;;6.68;3.85;;;;;;;;;;5053418;28;20040;-42
2024/03/31 03:30:45;;;;;;;6.53;3.50;;;;;;;;;;5068110;28;20028;-43
2024/03/31 03:33:12;;;;;;;5.13;3.60;;;;;;;;;;5074581;28;20063;-44
2024/03/31 03:35:38;;;;;;;8.63;3.88;;;;;;;;;;5082183;28;20136;-42
2024/03/31 03:38:07;;;;;;;7.60;4.32;;;;;;;;;;5080256;28;20172;-45
2024/03/31 03:40:33;;;;;;;8.05;4.00;;;;;;;;;;5070709;28;20115;-43
2024/03/31 03:42:59;;;;;;;7.53;4.53;;;;;;;;;;5051268;28;20032;-42
2024/03/31 03:45:25;;;;;;;6.30;4.07;;;;;;;;;;5050732;28;20091;-44
2024/03/31 03:47:51;;;;;;;7.15;3.90;;;;;;;;;;5059249;28;20055;-45
2024/03/31 03:50:17;;;;;;;8.27;4.45;;;;;;;;;;5049446;28;20485;-43
2024/03/31 03:52:43;;;;;;;6.72;4.20;;;;;;;;;;5047950;28;20041;-43
2024/03/31 03:55:09;;;;;;;10.82;4.63;;;;;;;;;;5047832;28;20052;-44
2024/03/31 03:57:35;;;;;;;11.32;5.50;;;;;;;;;;5047903;28;20477;-43
2024/03/31 04:00:00;;;;;;;10.05;5.82;;;;;;;;;;5047681;28;20587;-43
2024/03/31 04:02:30;;;;;;;;;;;;;;;;;;5064489;28;20049;-42
2024/03/31 04:04:55;;;;;;;9.80;5.68;;;;;;;;;;5048706;28;19967;-45
2024/03/31 04:07:21;;;;;;;9.35;6.22;;;;;;;;;;5046752;28;20072;-44
2024/03/31 04:09:47;;;;;;;10.50;6.00;;;;;;;;;;5048863;28;20041;-43
2024/03/31 04:12:13;;;;;;;13.85;6.82;;;;;;;;;;5064234;28;20041;-43
2024/03/31 04:14:39;;;;;;;12.15;7.32;;;;;;;;;;5047211;28;20033;-43
2024/03/31 04:17:05;;;;;;;10.85;6.32;;;;;;;;;;5064346;28;20508;-45
2024/03/31 04:19:31;;;;;;;12.70;6.95;;;;;;;;;;5064227;28;20044;-44
2024/03/31 04:21:57;;;;;;;11.40;6.75;;;;;;;;;;5048524;28;20044;-43
2024/03/31 04:24:23;;;;;;;10.40;6.57;;;;;;;;;;5048195;28;20075;-43
2024/03/31 04:26:49;;;;;;;12.40;6.85;;;;;;;;;;5063287;28;20061;-44
2024/03/31 04:29:15;;;;;;;10.68;6.28;;;;;;;;;;5046692;28;20067;-43
2024/03/31 04:31:51;;;;;;;10.85;6.68;;;;;;;;;;5048624;28;20041;-45
2024/03/31 04:34:17;;;;;;;12.90;6.50;;;;;;;;;;5047545;28;20040;-45
2024/03/31 04:36:44;;;;;;;11.32;5.85;;;;;;;;;;5047437;28;20496;-43
2024/03/31 04:39:10;;;;;;;10.02;5.97;;;;;;;;;;5047295;28;20116;-43
2024/03/31 04:41:36;;;;;;;11.40;6.13;;;;;;;;;;5047285;28;20029;-43
2024/03/31 04:44:02;;;;;;;9.98;6.25;;;;;;;;;;5046803;28;20076;-43
2024/03/31 04:46:27;;;;;;;12.07;6.00;;;;;;;;;;5046952;28;20068;-45
2024/03/31 04:48:53;;;;;;;11.55;6.57;;;;;;;;;;5066715;28;20037;-43
2024/03/31 04:51:20;;;;;;;10.18;5.93;;;;;;;;;;5067893;28;20195;-45
2024/03/31 04:53:46;;;;;;;10.05;6.55;;;;;;;;;;5066431;28;20037;-43
2024/03/31 04:56:12;;;;;;;12.00;6.72;;;;;;;;;;5066676;28;20098;-44
2024/03/31 04:58:37;;;;;;;11.70;6.15;;;;;;;;;;5066020;28;20071;-42
2024/03/31 05:01:03;;;;;;;10.55;6.18;;;;;;;;;;5045959;28;20080;-43
2024/03/31 05:03:29;;;;;;;9.27;6.35;;;;;;;;;;5063079;28;20086;-43
2024/03/31 05:05:55;;;;;;;11.38;6.25;;;;;;;;;;5047565;28;20162;-43
2024/03/31 05:08:21;;;;;;;9.55;6.13;;;;;;;;;;5053742;28;20104;-43
2024/03/31 05:10:53;;;;;;;11.85;6.32;;;;;;;;;;5055927;28;20039;-47
2024/03/31 05:13:19;;;;;;;11.82;5.95;;;;;;;;;;5057765;28;20101;-44
2024/03/31 05:15:45;;;;;;;8.88;6.40;;;;;;;;;;5059286;28;20032;-49
2024/03/31 05:18:16;;;;;;;11.15;5.55;;;;;;;;;;5075963;28;20593;-45
2024/03/31 05:20:52;;;;;;;12.50;6.10;;;;;;;;;;5068597;28;20060;-44
2024/03/31 05:23:18;;;;;;;8.82;5.78;;;;;;;;;;5065819;28;20059;-45
2024/03/31 05:25:44;;;;;;;12.45;6.32;;;;;;;;;;5048969;28;20063;-44
2024/03/31 05:28:10;;;;;;;10.40;5.43;;;;;;;;;;5068652;28;20032;-43
2024/03/31 05:30:36;;;;;;;10.82;6.20;;;;;;;;;;5043873;28;20163;-43
2024/03/31 05:33:02;;;;;;;11.48;6.72;;;;;;;;;;5062156;28;20504;-46
2024/03/31 05:35:40;;;;;;;;;;;;;;;;;;5097274;28;20495;-45
2024/03/31 05:38:07;;;;;;;10.70;5.28;;;;;;;;;;5083913;28;19962;-48
2024/03/31 05:40:33;;;;;;;8.18;5.35;;;;;;;;;;5069434;28;20040;-44
2024/03/31 05:42:59;;;;;;;10.00;6.15;;;;;;;;;;5053820;28;20032;-44
2024/03/31 05:45:25;;;;;;;10.05;6.47;;;;;;;;;;5068369;28;20930;-44
2024/03/31 05:47:50;;;;;;;10.48;6.15;;;;;;;;;;5065638;28;20054;-45
2024/03/31 05:50:16;;;;;;;11.07;6.28;;;;;;;;;;5034776;28;20078;-43
2024/03/31 05:52:42;;;;;;;10.48;5.90;;;;;;;;;;5031917;28;20064;-45
2024/03/31 05:55:08;;;;;;;10.30;6.10;;;;;;;;;;5052494;28;20464;-45
2024/03/31 05:57:34;;;;;;;8.65;5.63;;;;;;;;;;5065102;28;20047;-43
2024/03/31 06:00:00;;;;;;;8.05;5.25;;;;;;;;;;5048105;28;20527;-44
2024/03/31 06:02:26;;;;;;;9.85;5.80;;;;;;;;;;5056079;28;20033;-44
2024/03/31 06:04:51;;;;;;;7.93;5.43;;;;;;;;;;5062114;28;20143;-44
2024/03/31 06:07:17;;;;;;;7.45;5.30;;;;;;;;;;5029025;28;20110;-44
2024/03/31 06:09:46;;;;;;;7.10;5.25;;;;;;;;;;5067190;28;20028;-45
2024/03/31 06:12:12;;;;;;;6.75;5.05;;;;;;;;;;5044780;28;20132;-44
2024/03/31 06:14:38;;;;;;;8.80;5.35;;;;;;;;;;5071185;28;20696;-45
2024/03/31 06:17:04;;;;;;;12.73;6.45;;;;;;;;;;5070424;28;20063;-44
2024/03/31 06:19:30;;;;;;;10.57;5.78;;;;;;;;;;5075020;28;20341;-47
2024/03/31 06:21:56;;;;;;;9.82;5.70;;;;;;;;;;5071560;28;20070;-46
2024/03/31 06:24:22;;;;;;;8.05;5.60;;;;;;;;;;5075258;28;20054;-48
2024/03/31 06:26:48;;;;;;;9.57;5.82;;;;;;;;;;5075778;28;20033;-47
2024/03/31 06:29:13;;;;;;;10.10;5.90;;;;;;;;;;5073434;28;20032;-47
2024/03/31 06:31:39;;;;;;;10.23;5.93;;;;;;;;;;5064666;28;20048;-45
2024/03/31 06:34:05;;;;;;;8.55;5.78;;;;;;;;;;5047398;28;20032;-46
2024/03/31 06:36:31;;;;;;;8.15;5.97;;;;;;;;;;5060990;28;20032;-45
2024/03/31 06:38:57;;;;;;;10.57;5.75;;;;;;;;;;5060961;28;20032;-47
2024/03/31 06:41:23;;;;;;;8.25;5.78;;;;;;;;;;5066852;28;20534;-47
2024/03/31 06:43:49;;;;;;;6.65;5.35;;;;;;;;;;5051811;28;20076;-49
2024/03/31 06:46:14;;;;;;;9.48;5.60;;;;;;;;;;5054278;28;20060;-47
2024/03/31 06:48:40;;;;;;;8.18;5.20;;;;;;;;;;5057472;28;20045;-48
2024/03/31 06:51:06;;;;;;;7.95;5.68;;;;;;;;;;5055966;28;20041;-49
2024/03/31 06:53:32;;;;;;;8.18;5.40;;;;;;;;;;5056698;28;20062;-47
2024/03/31 06:55:58;;;;;;;6.78;5.22;;;;;;;;;;5060785;28;20041;-47
2024/03/31 06:58:24;;;;;;;8.15;6.03;;;;;;;;;;5075286;28;20340;-49
2024/03/31 07:00:55;;;;;;;9.82;5.78;;;;;;;;;;5047453;28;20040;-49
2024/03/31 07:03:23;;;;;;;9.40;5.97;;;;;;;;;;5061562;28;20032;-47
2024/03/31 07:05:49;;;;;;;6.68;5.35;;;;;;;;;;5044323;28;20052;-45
2024/03/31 07:08:14;;;;;;;8.05;5.40;;;;;;;;;;5054524;28;20048;-48
2024/03/31 07:10:42;;;;;;;10.00;5.22;;;;;;;;;;5064509;28;20123;-50
2024/03/31 07:13:07;;;;;;;8.13;5.75;;;;;;;;;;5064298;28;20136;-47
2024/03/31 07:15:34;;;;;;;8.13;5.32;;;;;;;;;;5046785;28;20057;-45
2024/03/31 07:18:06;;;;;;;10.60;5.15;;;;;;;;;;5044427;28;20040;-46
2024/03/31 07:20:35;;;;;;;9.75;5.82;;;;;;;;;;5044459;28;20025;-47
2024/03/31 07:23:05;;;;;;;6.82;5.10;;;;;;;;;;5045849;28;20436;-46
2024/03/31 07:25:35;;;;;;;5.88;5.07;;;;;;;;;;5045855;28;20471;-45
2024/03/31 07:28:01;;;;;;;6.00;5.10;;;;;;;;;;5044303;28;20040;-47
2024/03/31 07:30:27;;;;;;;4.85;3.80;;;;;;;;;;5044245;28;20041;-46
2024/03/31 07:32:53;;;;;;;4.13;3.67;;;;;;;;;;5060691;28;20082;-51
2024/03/31 07:35:18;;;;;;;3.95;3.20;;;;;;;;;;5060906;28;20040;-47
2024/03/31 07:37:47;;;;;;;7.72;3.53;;;;;;;;;;5043803;28;20136;-46
2024/03/31 07:40:13;;;;;;;5.50;3.55;;;;;;;;;;5045292;28;20033;-46
2024/03/31 07:42:39;;;;;;;8.20;4.07;;;;;;;;;;5043872;28;20048;-47
2024/03/31 07:45:05;;;;;;;4.80;4.30;;;;;;;;;;5040539;28;20638;-44
2024/03/31 07:47:31;;;;;;;8.15;4.40;;;;;;;;;;5046891;28;20036;-47
2024/03/31 07:49:57;;;;;;;7.60;3.85;;;;;;;;;;5078320;28;20098;-46
2024/03/31 07:52:22;;;;;;;5.80;3.60;;;;;;;;;;5063971;28;20037;-45
2024/03/31 07:54:48;;;;;;;5.18;3.83;;;;;;;;;;5056446;28;20041;-48
2024/03/31 07:57:17;;;;;;;5.38;3.75;;;;;;;;;;5068035;28;20085;-45
2024/03/31 07:59:42;;;;;;;7.32;4.00;;;;;;;;;;5082800;28;20040;-45
2024/03/31 08:02:08;;;;;;;5.50;3.80;;;;;;;;;;5054590;28;20039;-46
2024/03/31 08:04:34;;;;;;;3.75;2.75;;;;;;;;;;5067587;28;20168;-44
2024/03/31 08:06:59;;;;;;;2.70;2.50;;;;;;;;;;5067857;28;20036;-44
2024/03/31 08:09:26;;;;;;;2.60;2.40;;;;;;;;;;5068992;28;20130;-45
2024/03/31 08:11:51;;;;;;;5.63;2.55;;;;;;;;;;5068551;28;20717;-46
2024/03/31 08:14:17;;;;;;;6.30;2.80;;;;;;;;;;5056542;28;20039;-49
2024/03/31 08:16:43;;;;;;;5.60;3.00;;;;;;;;;;5067970;28;20415;-46
2024/03/31 08:19:08;;;;;;;3.67;2.60;;;;;;;;;;5061826;28;20037;-44
2024/03/31 08:21:34;;;;;;;4.47;2.33;;;;;;;;;;5068115;28;20036;-45
2024/03/31 08:24:00;;;;;;;4.38;2.50;;;;;;;;;;5068141;28;20713;-54
2024/03/31 08:26:25;;;;;;;4.05;2.40;;;;;;;;;;5066755;28;20040;-46
2024/03/31 08:28:51;;;;;;;3.78;2.20;;;;;;;;;;5061476;28;20048;-45
2024/03/31 08:31:17;;;;;;;6.05;2.50;;;;;;;;;;5046553;28;20037;-47
2024/03/31 08:33:45;;;;;;;3.50;2.30;;;;;;;;;;5046841;28;20845;-47
2024/03/31 08:36:10;;;;;;;;;;;;;;;;;;5083392;28;20040;-50
2024/03/31 08:38:38;;;;;;;3.92;2.58;;;;;;;;;;5077130;28;19916;-48
2024/03/31 08:41:05;;;;;;;6.20;3.67;;;;;;;;;;5070138;28;20412;-47
2024/03/31 08:43:36;;;;;;;6.75;3.80;;;;;;;;;;5070688;28;20126;-45
2024/03/31 08:46:04;;;;;;;9.30;3.70;;;;;;;;;;5045995;28;20041;-45
2024/03/31 08:48:31;;;;;;;5.07;2.97;;;;;;;;;;5053422;28;20036;-47
2024/03/31 08:50:57;;;;;;;3.47;3.10;;;;;;;;;;5062685;28;20032;-49
2024/03/31 08:53:24;;;;;;;5.70;3.17;;;;;;;;;;5047871;28;20037;-52
2024/03/31 08:55:51;;;;;;;4.78;3.55;;;;;;;;;;5072477;28;20056;-48
2024/03/31 08:58:17;;;;;;;8.57;4.78;;;;;;;;;;5032974;28;20037;-50
2024/03/31 09:00:43;;;;;;;8.43;3.55;;;;;;;;;;5057120;28;20487;-46
2024/03/31 09:03:09;;;;;;;6.97;4.32;;;;;;;;;;5053423;28;20118;-49
2024/03/31 09:05:36;;;;;;;5.72;3.83;;;;;;;;;;5087601;28;20040;-50
2024/03/31 09:08:02;;;;;;;10.55;4.10;;;;;;;;;;5069242;28;20755;-50
2024/03/31 09:10:28;;;;;;;7.38;3.92;;;;;;;;;;5064252;28;20412;-54
2024/03/31 09:12:54;;;;;;;5.45;3.25;;;;;;;;;;5067274;28;20079;-50
2024/03/31 09:15:20;;;;;;;7.45;4.65;;;;;;;;;;5067236;28;20520;-53
2024/03/31 09:17:45;;;;;;;6.43;3.70;;;;;;;;;;5048866;28;20045;-49
2024/03/31 09:20:12;;;;;;;4.63;3.47;;;;;;;;;;5065812;28;20029;-48
2024/03/31 09:22:41;;;;;;;6.45;2.90;;;;;;;;;;5045360;28;20082;-50
2024/03/31 09:25:10;;;;;;;5.15;2.83;;;;;;;;;;5047149;28;20041;-50
2024/03/31 09:27:36;;;;;;;6.95;3.80;;;;;;;;;;5045651;28;20520;-49
2024/03/31 09:30:04;;;;;;;5.15;3.33;;;;;;;;;;5062297;28;20040;-46
2024/03/31 09:32:30;;;;;;;5.47;2.92;;;;;;;;;;5070748;28;20035;-46
2024/03/31 09:34:56;;;;;;;4.80;2.90;;;;;;;;;;5086020;28;20415;-49
2024/03/31 09:37:22;;;;;;;6.07;3.28;;;;;;;;;;5086193;28;20078;-46
2024/03/31 09:39:52;;;;;;;4.57;2.58;;;;;;;;;;5079793;28;20059;-48
2024/03/31 09:42:19;;;;;;;5.22;2.40;;;;;;;;;;5053276;28;20578;-47
2024/03/31 09:44:45;;;;;;;4.78;2.33;;;;;;;;;;5067002;28;20104;-49
2024/03/31 09:47:20;;;;;;;7.65;2.72;;;;;;;;;;5068532;28;20148;-50
2024/03/31 09:49:52;;;;;;;5.82;2.50;;;;;;;;;;5048949;28;20043;-50
2024/03/31 09:52:23;;;;;;;5.60;3.90;;;;;;;;;;5048346;28;20044;-47
2024/03/31 09:54:53;;;;;;;12.15;3.13;;;;;;;;;;5045142;28;20444;-51
2024/03/31 09:57:21;;;;;;;4.90;2.10;;;;;;;;;;5046157;28;20025;-47
2024/03/31 09:59:47;;;;;;;;;;;;;;;;;;5046442;28;20033;-50
2024/03/31 10:02:13;;;;;;;3.90;2.10;;;;;;;;;;5046183;28;19924;-53
2024/03/31 10:04:41;;;;;;;22.67;11.88;;;;;;;;;;5046650;28;20063;-51
2024/03/31 10:07:07;;;;;;;7.53;2.50;;;;;;;;;;5046863;28;20562;-48
2024/03/31 10:09:33;;;;;;;4.13;2.20;;;;;;;;;;5045347;28;20032;-48
2024/03/31 10:12:00;;;;;;;15.20;3.80;;;;;;;;;;5045345;28;20037;-48
2024/03/31 10:14:27;;;;;;;3.60;1.87;;;;;;;;;;5045399;28;20119;-49
2024/03/31 10:16:53;;;;;;;7.50;1.95;;;;;;;;;;5046700;28;20067;-52
2024/03/31 10:19:19;;;;;;;3.50;1.85;;;;;;;;;;5045476;28;20330;-53
2024/03/31 10:21:46;;;;;;;7.72;2.20;;;;;;;;;;5046640;28;20131;-48
2024/03/31 10:24:13;;;;;;;6.32;2.13;;;;;;;;;;5046417;28;20033;-48
2024/03/31 10:26:39;;;;;;;2.90;1.90;;;;;;;;;;5061387;28;20467;-48
2024/03/31 10:29:05;;;;;;;8.27;3.00;;;;;;;;;;5046274;28;20094;-48
2024/03/31 10:31:31;;;;;;;7.60;2.25;;;;;;;;;;5028273;28;20102;-49
2024/03/31 10:33:57;;;;;;;8.57;3.85;;;;;;;;;;5046442;28;20040;-52
2024/03/31 10:36:23;;;;;;;4.70;1.85;;;;;;;;;;5046375;28;20415;-51
2024/03/31 10:38:48;;;;;;;6.47;2.20;;;;;;;;;;5044299;28;20041;-51
2024/03/31 10:41:14;;;;;;;4.90;2.17;;;;;;;;;;5050599;28;20036;-45
2024/03/31 10:43:40;;;;;;;4.57;1.80;;;;;;;;;;5049488;28;20068;-50
2024/03/31 10:46:09;;;;;;;3.60;2.00;;;;;;;;;;5044638;28;20033;-49
2024/03/31 10:48:35;;;;;;;5.25;2.40;;;;;;;;;;5033947;28;20029;-48
2024/03/31 10:51:14;;;;;;;3.47;1.90;;;;;;;;;;5066306;28;20039;-47
2024/03/31 10:53:40;;;;;;;3.30;1.98;;;;;;;;;;5053821;28;20068;-48
2024/03/31 10:56:09;;;;;;;5.72;1.80;;;;;;;;;;5044553;28;20061;-51
2024/03/31 10:58:38;;;;;;;2.85;1.80;;;;;;;;;;5045989;28;20509;-55
2024/03/31 11:01:03;;;;;;;3.17;1.98;;;;;;;;;;5045804;28;20032;-47
2024/03/31 11:03:33;;;;;;;5.18;1.70;;;;;;;;;;5044756;28;20522;-47
2024/03/31 11:06:02;;;;;;;5.35;2.65;;;;;;;;;;5046029;28;20127;-49
2024/03/31 11:08:28;;;;;;;4.78;2.47;;;;;;;;;;5044654;28;20035;-50
2024/03/31 11:10:54;;;;;;;2.83;2.00;;;;;;;;;;5044497;28;20037;-47
2024/03/31 11:13:20;;;;;;;3.83;1.83;;;;;;;;;;5046080;28;20033;-49
2024/03/31 11:15:46;;;;;;;6.38;2.28;;;;;;;;;;5044787;28;20098;-48
2024/03/31 11:18:12;;;;;;;4.57;1.92;;;;;;;;;;5045681;28;20050;-49
2024/03/31 11:20:44;;;;;;;2.80;1.95;;;;;;;;;;5027960;28;20037;-51
2024/03/31 11:23:14;;;;;;;2.42;1.80;;;;;;;;;;5046274;28;20273;-51
2024/03/31 11:25:41;;;;;;;2.80;2.28;;;;;;;;;;5046192;28;20099;-53
2024/03/31 11:28:08;;;;;;;7.28;2.70;;;;;;;;;;5046410;28;20033;-54
2024/03/31 11:30:35;;;;;;;3.53;2.53;;;;;;;;;;5028286;28;20571;-54
2024/03/31 11:33:03;;;;;;;2.83;1.90;;;;;;;;;;5044891;28;20037;-53
2024/03/31 11:35:30;;;;;;;4.82;2.35;;;;;;;;;;5044426;28;20786;-52
2024/03/31 11:38:16;;;;;;;7.95;2.33;;;;;;;;;;5045941;28;20029;-51
2024/03/31 11:40:42;;;;;;;2.10;1.77;;;;;;;;;;5049378;28;20045;-49
2024/03/31 11:43:08;;;;;;;5.63;2.80;;;;;;;;;;5048137;28;20033;-50
2024/03/31 11:45:35;;;;;;;2.20;1.95;;;;;;;;;;5047948;28;20131;-53
2024/03/31 11:48:04;;;;;;;5.77;1.90;;;;;;;;;;5048502;28;20040;-53
2024/03/31 11:50:32;;;;;;;4.38;2.20;;;;;;;;;;5051849;28;20037;-50
2024/03/31 11:52:59;;;;;;;7.38;2.28;;;;;;;;;;5089475;28;20032;-52
2024/03/31 11:55:24;;;;;;;5.32;2.38;;;;;;;;;;5088173;28;20036;-53
2024/03/31 11:57:50;;;;;;;15.50;8.85;;;;;;;;;;5071521;28;20625;-53
2024/03/31 12:00:16;;;;;;;3.80;2.20;;;;;;;;;;5055858;28;20526;-53
2024/03/31 12:02:42;;;;;;;10.43;5.10;;;;;;;;;;5031218;28;20360;-52
2024/03/31 12:05:18;;;;;;;9.85;2.90;;;;;;;;;;5047428;28;20128;-56
2024/03/31 12:07:44;;;;;;;3.08;1.85;;;;;;;;;;5048304;28;20156;-54
2024/03/31 12:10:10;;;;;;;6.13;2.15;;;;;;;;;;5047967;28;20045;-54
2024/03/31 12:12:36;;;;;;;7.10;2.38;;;;;;;;;;5014801;28;20029;-53
2024/03/31 12:15:02;;;;;;;7.25;2.75;;;;;;;;;;5047871;28;20369;-52
2024/03/31 12:17:30;;;;;;;6.32;2.35;;;;;;;;;;5047443;28;20037;-51
2024/03/31 12:19:56;;;;;;;5.70;2.28;;;;;;;;;;5048795;28;20091;-53
2024/03/31 12:22:23;;;;;;;4.95;2.78;;;;;;;;;;5047548;28;20040;-54
2024/03/31 12:24:49;;;;;;;5.65;2.50;;;;;;;;;;5047329;28;20064;-51
2024/03/31 12:27:15;;;;;;;6.63;2.15;;;;;;;;;;5047315;28;20061;-53
2024/03/31 12:29:41;;;;;;;6.07;2.60;;;;;;;;;;5048752;28;20527;-50
2024/03/31 12:32:08;;;;;;;5.70;2.05;;;;;;;;;;5047062;28;20100;-52
2024/03/31 12:34:36;;;;;;;7.70;4.30;;;;;;;;;;5048591;28;20418;-52
2024/03/31 12:37:01;;;;;;;5.45;2.65;;;;;;;;;;5059877;28;20332;-54
2024/03/31 12:39:30;;;;;;;7.00;2.25;;;;;;;;;;5067003;28;20542;-50
2024/03/31 12:41:59;;;;;;;2.88;1.98;;;;;;;;;;5039740;28;20040;-52
2024/03/31 12:44:25;;;;;;;8.35;2.33;;;;;;;;;;5046702;28;20037;-52
2024/03/31 12:46:51;;;;;;;5.05;2.38;;;;;;;;;;5048271;28;20048;-50
2024/03/31 12:49:16;;;;;;;5.55;2.13;;;;;;;;;;5059343;28;20662;-52
2024/03/31 12:51:42;;;;;;;8.13;2.50;;;;;;;;;;5049844;28;20044;-49
2024/03/31 12:54:08;;;;;;;10.70;2.72;;;;;;;;;;5067973;28;20040;-51
2024/03/31 12:56:34;;;;;;;5.65;2.20;;;;;;;;;;5050311;28;20421;-49
2024/03/31 12:59:01;;;;;;;4.00;2.25;;;;;;;;;;5066634;28;20428;-49
2024/03/31 13:01:27;;;;;;;7.50;2.72;;;;;;;;;;5066724;28;20029;-47
2024/03/31 13:03:53;;;;;;;5.22;2.40;;;;;;;;;;5066732;28;20048;-49
2024/03/31 13:06:18;;;;;;;4.60;2.00;;;;;;;;;;5056902;28;20051;-49
2024/03/31 13:08:47;;;;;;;4.63;1.80;;;;;;;;;;5047988;28;20543;-46
2024/03/31 13:11:17;;;;;;;4.65;2.22;;;;;;;;;;5029499;28;20157;-48
2024/03/31 13:13:45;;;;;;;8.30;1.80;;;;;;;;;;5046293;28;20039;-47
2024/03/31 13:16:10;;;;;;;4.03;1.85;;;;;;;;;;5045656;28;20123;-52
2024/03/31 13:18:36;;;;;;;4.30;1.70;;;;;;;;;;5029533;28;20068;-52
2024/03/31 13:21:03;;;;;;;3.78;1.65;;;;;;;;;;5064429;28;20131;-49
2024/03/31 13:23:29;;;;;;;3.72;2.47;;;;;;;;;;5065753;28;20115;-50
2024/03/31 13:25:55;;;;;;;4.35;1.50;;;;;;;;;;5071953;28;20138;-49
2024/03/31 13:28:23;;;;;;;4.38;1.70;;;;;;;;;;5029362;28;20033;-48
2024/03/31 13:30:49;;;;;;;3.40;1.50;;;;;;;;;;5047151;28;20603;-49
2024/03/31 13:33:15;;;;;;;4.22;1.88;;;;;;;;;;5047170;28;20136;-50
2024/03/31 13:35:41;;;;;;;3.38;1.65;;;;;;;;;;5045879;28;20080;-48
2024/03/31 13:38:06;;;;;;;4.88;1.60;;;;;;;;;;5058979;28;20131;-49
2024/03/31 13:40:33;;;;;;;6.50;2.00;;;;;;;;;;5045702;28;20044;-52
2024/03/31 13:42:59;;;;;;;4.95;2.03;;;;;;;;;;5075593;28;20486;-52
2024/03/31 13:45:26;;;;;;;6.20;2.03;;;;;;;;;;5060063;28;20034;-48
2024/03/31 13:47:54;;;;;;;6.93;2.53;;;;;;;;;;5057969;28;20035;-47
2024/03/31 13:50:22;;;;;;;3.50;2.38;;;;;;;;;;5032913;28;20036;-47
2024/03/31 13:52:48;;;;;;;7.03;1.95;;;;;;;;;;5048977;28;20041;-45
2024/03/31 13:55:14;;;;;;;9.55;1.50;;;;;;;;;;5048674;28;20043;-46
2024/03/31 13:57:40;;;;;;;2.78;1.48;;;;;;;;;;5048466;28;20056;-51
2024/03/31 14:00:05;;;;;;;4.63;2.00;;;;;;;;;;5048045;28;20127;-47
2024/03/31 14:02:39;;;;;;;4.35;1.40;;;;;;;;;;5066955;28;20033;-48
2024/03/31 14:05:07;;;;;;;4.22;1.33;;;;;;;;;;5048641;28;20048;-46
2024/03/31 14:07:33;;;;;;;5.30;1.35;;;;;;;;;;5061359;28;20033;-45
2024/03/31 14:09:59;;;;;;;5.05;1.65;;;;;;;;;;5046950;28;20416;-45
2024/03/31 14:12:25;;;;;;;5.10;1.98;;;;;;;;;;5062095;28;20040;-45
2024/03/31 14:14:53;;;;;;;3.13;1.88;;;;;;;;;;5045303;28;20067;-48
2024/03/31 14:17:19;;;;;;;4.53;1.80;;;;;;;;;;5073712;28;20072;-47
2024/03/31 14:19:46;;;;;;;5.57;1.65;;;;;;;;;;5046156;28;20040;-46
2024/03/31 14:22:12;;;;;;;2.97;1.30;;;;;;;;;;5062175;28;20121;-46
2024/03/31 14:24:40;;;;;;;3.67;1.60;;;;;;;;;;5028970;28;20128;-47
2024/03/31 14:27:09;;;;;;;3.27;1.83;;;;;;;;;;5081507;28;20500;-50
2024/03/31 14:29:38;;;;;;;6.88;1.58;;;;;;;;;;5017204;28;20283;-46
2024/03/31 14:32:08;;;;;;;6.97;1.75;;;;;;;;;;5045238;28;20039;-46
2024/03/31 14:34:34;;;;;;;6.20;1.48;;;;;;;;;;5028517;28;20039;-47
2024/03/31 14:37:00;;;;;;;4.97;1.20;;;;;;;;;;5061849;28;20037;-44